Flight Track Log - Related Links

Times and Time Zones

All times are in EDT time to prevent confusion due to time zone crossing. See the LXJ537 flight status page for this flight to view local times or setup timezone preferences in your user account.

Time Position Orientation Groundspeed Altitude Reporting Facility
EDT Latitude Longitude Course Direction KTS MPH feet Rate Location/Type
Fri 11:58:11 AM 29.6011 -95.3269 224° Southwest 200 230 3,100  Level Houston Center
Fri 11:59:12 AM 29.5550 -95.3733 221° Southwest 240 276 6,100 2,718 Climbing Houston Center
Fri 12:00:08 PM 29.5361 -95.4428 253° West 293 337 8,400 2,233 Climbing Houston Center
Fri 12:01:21 PM 29.5706 -95.5306 294° West 279 321 10,900 2,222 Climbing Houston Center
Fri 12:02:23 PM 29.6167 -95.6192 301° West 314 361 13,400 2,688 Climbing Houston Center
Fri 12:03:26 PM 29.6789 -95.7339 302° West 347 399 16,500 2,592 Climbing Houston Center
Fri 12:04:28 PM 29.7342 -95.8347 302° West 369 425 18,800 2,323 Climbing Houston Center
Fri 12:05:30 PM 29.7872 -95.9331 302° West 363 418 21,300 2,371 Climbing Houston Center
Fri 12:06:32 PM 29.8394 -96.0278 302° West 368 423 23,700 2,565 Climbing Houston Center
Fri 12:07:34 PM 29.9081 -96.1536 302° West 387 445 26,600 2,661 Climbing Houston Center
Fri 12:08:36 PM 29.9383 -96.2711 287° West 394 453 29,200 2,371 Climbing Houston Center
Fri 12:09:38 PM 29.9475 -96.3972 275° West 394 453 31,500 2,081 Climbing Houston Center
Fri 12:10:40 PM 29.9533 -96.5228 273° West 394 453 33,500 1,935 Climbing Houston Center
Fri 12:11:42 PM 29.9744 -96.6481 281° West 399 459 35,500 2,112 Climbing Houston Center
Fri 12:12:45 PM 30.0053 -96.7914 284° West 388 447 37,900 2,112 Climbing Houston Center
Fri 12:13:47 PM 30.0289 -96.9081 283° West 377 434 39,900 1,935 Climbing Houston Center
Fri 12:14:49 PM 30.0514 -97.0175 283° West 358 412 41,900 1,000 Climbing Houston Center
Fri 12:16:00 PM 30.0755 -97.1654 281° West  Level FlightAware Approximate
Fri 12:16:53 PM 30.0956 -97.2336 281° West 338 389 43,000  Level Houston Center
Fri 12:17:55 PM 30.1192 -97.3508 283° West 362 417 43,000  Level Houston Center
Fri 12:18:57 PM 30.1433 -97.4722 283° West 379 436 43,000  Level Houston Center
Fri 12:19:59 PM 30.1697 -97.5958 284° West 389 448 43,000  Level Houston Center
Fri 12:21:01 PM 30.1978 -97.7389 283° West 386 444 43,000  Level Houston Center
Fri 12:22:04 PM 30.2222 -97.8617 283° West 387 445 43,000  Level Houston Center
Fri 12:23:06 PM 30.2478 -97.9906 283° West 380 437 43,000  Level Houston Center
Fri 12:24:08 PM 30.2722 -98.1114 283° West 385 443 43,000  Level Houston Center
Fri 12:25:10 PM 30.2978 -98.2419 283° West 388 447 43,000  Level Houston Center
Fri 12:26:12 PM 30.3197 -98.3503 283° West 387 445 43,000  Level Houston Center
Fri 12:27:14 PM 30.3433 -98.4736 283° West 389 448 43,000  Level Houston Center
Fri 12:28:16 PM 30.3711 -98.6181 283° West 390 449 43,000  Level Houston Center
Fri 12:29:18 PM 30.3950 -98.7414 283° West 391 450 43,000  Level Houston Center
Fri 12:30:20 PM 30.4192 -98.8656 283° West 392 451 43,000  Level Houston Center
Fri 12:31:23 PM 30.4436 -98.9911 283° West 395 455 43,000  Level Houston Center
Fri 12:32:25 PM 30.4664 -99.1153 282° West 392 451 43,000  Level Houston Center
Fri 12:33:27 PM 30.4919 -99.2394 283° West 391 450 43,000  Level Houston Center
Fri 12:34:29 PM 30.5161 -99.3631 283° West 394 453 43,000  Level Houston Center
Fri 12:35:31 PM 30.5383 -99.4869 282° West 394 453 43,000  Level Houston Center
Fri 12:36:33 PM 30.5656 -99.6356 282° West 394 453 43,000  Level Houston Center
Fri 12:37:35 PM 30.5894 -99.7572 283° West 390 449 43,000  Level Houston Center
Fri 12:38:37 PM 30.6083 -99.8811 280° West 391 450 43,000  Level Houston Center
Fri 12:39:40 PM 30.6222 -100.0042 278° West 389 448 43,000  Level Houston Center
Fri 12:40:42 PM 30.6375 -100.1275 278° West 388 447 43,000  Level Houston Center
Fri 12:41:44 PM 30.6553 -100.2772 278° West 392 451 43,000  Level Houston Center
Fri 12:42:46 PM 30.6711 -100.4017 278° West 401 461 43,000  Level Houston Center
Fri 12:43:48 PM 30.6853 -100.5244 278° West 392 451 43,000  Level Houston Center
Fri 12:44:50 PM 30.6997 -100.6503 278° West 411 473 43,000  Level Houston Center
Fri 12:45:52 PM 30.7139 -100.7747 278° West 395 455 43,000  Level Houston Center
Fri 12:46:54 PM 30.7308 -100.9269 277° West 405 466 43,000  Level Houston Center
Fri 12:47:56 PM 30.7453 -101.0533 278° West 405 466 43,000  Level Houston Center
Fri 12:48:59 PM 30.7608 -101.1761 278° West 392 451 43,000  Level Houston Center
Fri 12:50:01 PM 30.7756 -101.3028 278° West 395 455 43,000  Level Houston Center
Fri 12:51:03 PM 30.7889 -101.4283 277° West 395 455 43,000  Level Houston Center
Fri 12:52:05 PM 30.8053 -101.5797 277° West 397 457 43,000  Level Houston Center
Fri 12:52:48 PM 30.8122 -101.6603 276° West 394 453 43,000  Level Albuquerque Center
Fri 12:53:50 PM 30.8261 -101.7844 277° West 391 450 43,000  Level Albuquerque Center
Fri 12:54:52 PM 30.8397 -101.9103 277° West 391 450 43,000  Level Albuquerque Center
Fri 12:55:55 PM 30.8539 -102.0364 277° West 391 450 43,000 -48 Level Albuquerque Center
Fri 12:56:57 PM 30.8697 -102.1883 277° West 392 451 42,900  Descending Albuquerque Center
Fri 12:57:59 PM 30.8828 -102.3156 277° West 393 452 43,000 48 Climbing Albuquerque Center
Fri 12:59:01 PM 30.8961 -102.4428 277° West 393 452 43,000  Level Albuquerque Center
Fri 01:00:03 PM 30.9103 -102.5706 277° West 395 455 43,000  Level Albuquerque Center
Fri 01:01:05 PM 30.9231 -102.6975 277° West 394 453 43,000  Level Albuquerque Center
Fri 01:02:07 PM 30.9364 -102.8261 277° West 397 457 43,000  Level Albuquerque Center
Fri 01:03:09 PM 30.9494 -102.9542 277° West 399 459 43,000  Level Albuquerque Center
Fri 01:04:11 PM 30.9867 -103.1014 286° West 398 458 43,000  Level Albuquerque Center
Fri 01:05:13 PM 31.0225 -103.2267 288° West 404 465 43,000 -48 Level Albuquerque Center
Fri 01:06:15 PM 31.0544 -103.3489 287° West 398 458 42,900  Descending Albuquerque Center
Fri 01:07:17 PM 31.0881 -103.4731 288° West 401 461 43,000 48 Climbing Albuquerque Center
Fri 01:08:19 PM 31.1222 -103.5956 288° West 398 458 43,000  Level Albuquerque Center
Fri 01:09:21 PM 31.1547 -103.7175 287° West 395 455 43,000 -48 Level Albuquerque Center
Fri 01:10:23 PM 31.1925 -103.8586 287° West 394 453 42,900  Descending Albuquerque Center
Fri 01:11:25 PM 31.2247 -103.9806 287° West 395 455 43,000 48 Climbing Albuquerque Center
Fri 01:12:27 PM 31.2583 -104.1033 288° West 397 457 43,000  Level Albuquerque Center
Fri 01:13:29 PM 31.2911 -104.2256 287° West 397 457 43,000  Level Albuquerque Center
Fri 01:14:31 PM 31.3244 -104.3469 288° West 395 455 43,000  Level Albuquerque Center
Fri 01:15:33 PM 31.3614 -104.4928 287° West 393 452 43,000  Level Albuquerque Center
Fri 01:16:35 PM 31.3939 -104.6136 288° West 393 452 43,000 -48 Level Albuquerque Center
Fri 01:17:37 PM 31.4261 -104.7350 287° West 393 452 42,900  Descending Albuquerque Center
Fri 01:18:40 PM 31.4572 -104.8572 287° West 398 458 43,000  Climbing Albuquerque Center
Fri 01:19:42 PM 31.4883 -104.9761 287° West 389 448 42,900  Descending Albuquerque Center
Fri 01:20:44 PM 31.5247 -105.1211 286° West 390 449 43,000 48 Climbing Albuquerque Center
Fri 01:21:46 PM 31.5572 -105.2439 287° West 394 453 43,000  Level Albuquerque Center
Fri 01:22:48 PM 31.5881 -105.3683 286° West 400 460 43,000  Level Albuquerque Center
Fri 01:23:50 PM 31.6183 -105.4908 286° West 395 455 43,000  Level Albuquerque Center
Fri 01:24:52 PM 31.6492 -105.6106 287° West 386 444 43,000  Level Albuquerque Center
Fri 01:25:54 PM 31.6803 -105.7319 287° West 388 447 43,000  Level Albuquerque Center
Fri 01:26:56 PM 31.7161 -105.8767 286° West 386 444 43,000  Level Albuquerque Center
Fri 01:27:58 PM 31.7461 -105.9983 286° West 388 447 43,000  Level Albuquerque Center
Fri 01:29:00 PM 31.7767 -106.1186 287° West 386 444 43,000  Level Albuquerque Center
Fri 01:30:02 PM 31.8083 -106.2406 287° West 389 448 43,000  Level Albuquerque Center
Fri 01:31:04 PM 31.8703 -106.3497 304° West 400 460 43,000  Level Albuquerque Center
Fri 01:32:06 PM 31.9586 -106.4667 312° West 409 471 43,000  Level Albuquerque Center
Fri 01:33:08 PM 32.0328 -106.5639 312° West 402 463 43,000  Level Albuquerque Center
Fri 01:34:10 PM 32.1078 -106.6622 312° West 403 464 43,000  Level Albuquerque Center
Fri 01:35:12 PM 32.1828 -106.7611 312° West 404 465 43,000  Level Albuquerque Center
Fri 01:36:14 PM 32.2581 -106.8608 312° West 407 468 43,000  Level Albuquerque Center
Fri 01:38:18 PM 32.4244 -107.0822 312° West 408 470 43,000  Level Albuquerque Center
Fri 01:39:20 PM 32.4989 -107.1883 310° West 416 479 43,000  Level Albuquerque Center
Fri 01:40:23 PM 32.5703 -107.2831 312° West 415 478 43,000  Level Albuquerque Center
Fri 01:41:25 PM 32.6492 -107.3872 312° West 423 487 43,000  Level Albuquerque Center
Fri 01:42:27 PM 32.7394 -107.5117 311° West 432 497 43,000  Level Albuquerque Center
Fri 01:43:29 PM 32.8189 -107.6186 311° West 433 498 43,000  Level Albuquerque Center
Fri 01:44:31 PM 32.8992 -107.7272 311° West 436 502 43,000  Level Albuquerque Center
Fri 01:45:33 PM 32.9786 -107.8347 311° West 435 501 43,000 -48 Level Albuquerque Center
Fri 01:46:35 PM 33.0714 -107.9650 310° West 432 497 42,900  Descending Albuquerque Center
Fri 01:47:37 PM 33.1508 -108.0686 312° West 427 491 43,000 48 Climbing Albuquerque Center
Fri 01:48:39 PM 33.2269 -108.1725 311° West 425 489 43,000  Level Albuquerque Center
Fri 01:49:41 PM 33.3036 -108.2769 311° West 425 489 43,000  Level Albuquerque Center
Fri 01:50:43 PM 33.3803 -108.3825 311° West 426 490 43,000  Level Albuquerque Center
Fri 01:51:45 PM 33.4731 -108.5117 311° West 431 496 43,000  Level Albuquerque Center
Fri 01:52:47 PM 33.5514 -108.6200 311° West 434 499 43,000  Level Albuquerque Center
Fri 01:53:49 PM 33.6289 -108.7289 311° West 436 502 43,000  Level Albuquerque Center
Fri 01:54:51 PM 33.7067 -108.8381 311° West 437 503 43,000  Level Albuquerque Center
Fri 01:55:53 PM 33.7983 -108.9689 310° West 433 498 43,000  Level Albuquerque Center
Fri 01:56:55 PM 33.8761 -109.0772 311° West 433 498 43,000  Level Albuquerque Center
Fri 01:57:57 PM 33.9519 -109.1858 310° West 430 495 43,000  Level Albuquerque Center
Fri 01:58:59 PM 34.0278 -109.2939 310° West 428 493 43,000  Level Albuquerque Center
Fri 02:00:02 PM 34.1189 -109.4231 310° West 426 490 43,000  Level Albuquerque Center
Fri 02:01:04 PM 34.1953 -109.5311 311° West 426 490 43,000  Level Albuquerque Center
Fri 02:02:06 PM 34.2686 -109.6358 310° West 426 490 43,000  Level Albuquerque Center
Fri 02:03:08 PM 34.3547 -109.7600 310° West 428 493 43,000  Level Albuquerque Center
Fri 02:04:10 PM 34.4278 -109.8647 310° West 427 491 43,000  Level Albuquerque Center
Fri 02:05:12 PM 34.5136 -109.9889 310° West 428 493 43,000  Level Albuquerque Center
Fri 02:06:14 PM 34.5869 -110.0975 309° West 431 496 43,000  Level Albuquerque Center
Fri 02:07:16 PM 34.6736 -110.2228 310° West 434 499 43,000  Level Albuquerque Center
Fri 02:08:18 PM 34.7461 -110.3286 310° West 429 494 43,000  Level Albuquerque Center
Fri 02:09:20 PM 34.8300 -110.4536 309° West 426 490 43,000  Level Albuquerque Center
Fri 02:10:22 PM 34.9014 -110.5572 310° West 422 486 43,000  Level Albuquerque Center
Fri 02:11:24 PM 34.9847 -110.6800 310° West 420 483 43,000  Level Albuquerque Center
Fri 02:12:26 PM 35.0486 -110.7758 309° West 423 487 43,000  Level Albuquerque Center
Fri 02:13:28 PM 35.1061 -110.9092 298° West 422 486 43,000  Level Albuquerque Center
Fri 02:14:30 PM 35.1364 -111.0606 284° West 414 476 43,000  Level Albuquerque Center
Fri 02:15:32 PM 35.1667 -111.2008 285° West 420 483 43,000 -97 Level Albuquerque Center
Fri 02:16:34 PM 35.1939 -111.3353 284° West 413 475 42,800 -581 Descending Albuquerque Center
Fri 02:17:36 PM 35.2219 -111.4717 284° West 414 476 41,800 -1,220 Descending Albuquerque Center
Fri 02:18:37 PM 35.2506 -111.6111 284° West 422 486 40,300 -1,805 Descending Albuquerque Center
Fri 02:19:39 PM 35.2808 -111.7597 284° West 419 482 38,100 -2,226 Descending Albuquerque Center
Fri 02:20:41 PM 35.3072 -111.8983 283° West 420 483 35,700 -2,226 Descending Albuquerque Center
Fri 02:21:43 PM 35.3347 -112.0306 284° West 409 471 33,500 -2,323 Descending Albuquerque Center
Fri 02:22:45 PM 35.3656 -112.1950 283° West 412 474 30,900 -1,707 Descending Albuquerque Center
Fri 02:23:46 PM 35.3944 -112.3378 284° West 428 493 30,000 -412 Descending Albuquerque Center
Fri 02:24:56 PM 35.4286 -112.5108 284° West 439 505 30,000 -227 Level Los Angeles Center
Fri 02:25:58 PM 35.4583 -112.6642 283° West 438 504 29,500 -774 Descending Los Angeles Center
Fri 02:27:00 PM 35.4856 -112.8078 283° West 433 498 28,400 -1,016 Descending Los Angeles Center
Fri 02:28:02 PM 35.5144 -112.9592 283° West 424 488 27,400 -968 Descending Los Angeles Center
Fri 02:29:04 PM 35.5414 -113.0978 283° West 420 483 26,400 -968 Descending Los Angeles Center
Fri 02:30:06 PM 35.5686 -113.2417 283° West 429 494 25,400 -968 Descending Los Angeles Center
Fri 02:31:08 PM 35.5931 -113.3739 283° West 417 480 24,400 -677 Descending Los Angeles Center
Fri 02:32:10 PM 35.6181 -113.5097 283° West 412 474 24,000 -629 Descending Los Angeles Center
Fri 02:33:12 PM 35.6436 -113.6728 281° West 410 472 23,100 -1,488 Descending Los Angeles Center
Fri 02:34:15 PM 35.6619 -113.8097 279° West 410 472 20,900 -2,064 Descending Los Angeles Center
Fri 02:35:17 PM 35.6819 -113.9411 281° West 398 458 18,800 -1,984 Descending Los Angeles Center
Fri 02:36:19 PM 35.6989 -114.0658 280° West 380 437 16,800 -1,900 Descending Los Angeles Center
Fri 02:37:17 PM 35.7172 -114.1856 281° West 322 371 15,000 -1,682 Descending Los Angeles Center
Fri 02:38:06 PM 35.7286 -114.2639 280° West 310 357 13,800 -1,364 Descending Los Angeles Center
Fri 02:38:23 PM 35.7289 -114.2847 271° West 304 350 13,500 -1,574 Descending Los Angeles Center
Fri 02:39:07 PM 35.7486 -114.3714 286° West 298 343 12,200 -1,355 Descending Los Angeles Center
Fri 02:39:25 PM 35.7514 -114.3806 290° West 299 344 12,100 -655 Descending Los Angeles Center
Fri 02:40:02 PM 35.8056 -114.4131 334° Northwest 288 331 11,600 -677 Descending Los Angeles Center
Fri 02:40:27 PM 35.8367 -114.4367 328° Northwest 289 333 11,400 -492 Descending Los Angeles Center
Fri 02:41:03 PM 35.8800 -114.4650 332° Northwest 285 328 11,100 -484 Descending Los Angeles Center
Fri 02:41:29 PM 35.9056 -114.4833 330° Northwest 285 328 10,900 -545 Descending Los Angeles Center
Fri 02:42:09 PM 35.9542 -114.5169 331° Northwest 286 329 10,500 -581 Descending Los Angeles Center
Fri 02:42:31 PM 35.9747 -114.5300 333° Northwest 284 327 10,300 -984 Descending Los Angeles Center
Fri 02:43:10 PM 36.0203 -114.5614 331° Northwest 256 295 9,500 -968 Descending Los Angeles Center
Fri 02:43:33 PM 36.0367 -114.5714 334° Northwest 264 304 9,300 -984 Descending Los Angeles Center
Fri 02:44:11 PM 36.0789 -114.6003 331° Northwest 242 278 8,500 -952 Descending Los Angeles Center
Fri 02:44:36 PM 36.0964 -114.6081 340° North 246 283 8,300 -885 Descending Los Angeles Center
Fri 02:45:12 PM 36.1233 -114.6544 306° West 243 280 7,600 -968 Descending Los Angeles Center
Fri 02:45:38 PM 36.1261 -114.6744 280° West 249 287 7,300 -590 Descending Los Angeles Center
Fri 02:46:13 PM 36.1347 -114.7358 280° West 237 273 7,000 -290 Descending Los Angeles Center
Fri 02:46:40 PM 36.1386 -114.7717 278° West 241 277 7,000  Level Los Angeles Center
Fri 02:47:14 PM 36.1392 -114.8144 271° West 233 268 7,000 -97 Level Los Angeles Center
Fri 02:47:42 PM 36.1400 -114.8547 271° West 240 276 6,900 -885 Descending Los Angeles Center
Fri 02:48:15 PM 36.1375 -114.9056 267° West 242 278 6,100 -1,355 Descending Los Angeles Center
Fri 02:48:44 PM 36.1344 -114.9367 263° West 241 277 5,500 -1,475 Descending Los Angeles Center
Fri 02:49:16 PM 36.1303 -114.9906 265° West 246 283 4,600 -1,548 Descending Los Angeles Center
Fri 02:49:46 PM 36.1283 -115.0194 265° West 240 276 3,900 -1,082 Descending Los Angeles Center
Fri 02:50:17 PM 36.1264 -115.0717 267° West 240 276 3,500 -387 Descending Los Angeles Center
Fri 02:50:48 PM 36.1250 -115.0992 266° West 238 274 3,500 -545 Level Los Angeles Center
Fri 02:51:12 PM 36.1242 -115.1311 268° West 162 186 3,000 -968 Descending Los Angeles Center
Fri 02:51:50 PM 36.1147 -115.1481 235° Southwest 188 216 2,500 -789 Descending Los Angeles Center
Fri 02:53:00 PM 36.0801 -115.1523 270° West  Level Estimated
Fri 03:00:00 PM 36.0801 -115.1523 270° West  Level Estimated

Login

Don't have an account? Register now (free) for customized features, flight alerts, and more!